Monday, June 25, 2018, 12:18 AM EDT
Back to Local

KMVL, Morrisville Stowe State Airport

Location: Morrisville, VT, United States Lat: 44.533
Local Time: 12:18 AM EDT ( 4:18 GMT) Lon: -72.617
Time Zone: US/Eastern Elev: 731 ft

Show me the last for .
Show Decoded

2018-06-24 23:54 METAR KMVL 250354Z AUTO 02003KT 10SM -RA FEW005 OVC016 16/16 A2988 RMK AO2 RAB03
                 SLP119 P0001 T01610161 TSNO =
2018-06-24 23:51 METAR KMVL 250351Z AUTO 03005KT 10SM -RA FEW005 OVC016 16/16 A2988 RMK AO2 RAB03
                 P0001 TSNO =
2018-06-24 23:41 METAR KMVL 250341Z AUTO 02005KT 10SM -RA BKN014 OVC023 16/16 A2989 RMK AO2 RAB03
                 P0001 T01610161 TSNO =
2018-06-24 22:54 METAR KMVL 250254Z AUTO 00000KT 9SM FEW003 BKN025 OVC070 16/16 A2989 RMK AO2
                 RAE18 SLP121 P0000 60002 T01610161 50009 TSNO =
2018-06-24 21:58 METAR KMVL 250158Z AUTO 00000KT 7SM -RA FEW005 BKN020 OVC080 16/16 A2989 RMK AO2
                 P0000 T01610161 TSNO =
2018-06-24 21:54 METAR KMVL 250154Z AUTO 00000KT 7SM -RA SCT020 BKN080 OVC095 16/16 A2989 RMK AO2
                 RAB00 SLP122 P0002 T01610161 TSNO =
2018-06-24 20:54 METAR KMVL 250054Z AUTO 00000KT 10SM BKN100 BKN120 16/16 A2986 RMK AO2 SLP114
                 T01610161 TSNO =
2018-06-24 19:54 METAR KMVL 242354Z AUTO 00000KT 10SM OVC100 17/17 A2986 RMK AO2 RAB2257E47
                 SLP111 P0001 60001 T01720172 10200 20172 51006 TSNO =
2018-06-24 18:54 METAR KMVL 242254Z AUTO 07003KT 10SM OVC110 18/17 A2985 RMK AO2 RAE14 SLP109
                 P0000 T01830167 TSNO =
2018-06-24 17:54 METAR KMVL 242154Z AUTO 06003KT 10SM -RA FEW034 BKN050 OVC100 18/17 A2985 RMK
                 AO2 RAB40 SLP109 P0000 T01830167 TSNO =
2018-06-24 16:54 METAR KMVL 242054Z AUTO 02004KT 10SM BKN044 OVC055 19/15 A2984 RMK AO2 SLP105
                 T01940150 53003 TSNO =
2018-06-24 15:54 METAR KMVL 241954Z AUTO 00000KT 10SM OVC060 19/15 A2983 RMK AO2 SLP103 T01940150
                 TSNO =
2018-06-24 15:03 METAR KMVL 241903Z AUTO VRB03KT 10SM SCT028 BKN037 OVC055 19/16 A2983 RMK AO2
                 T01940156 TSNO =
2018-06-24 14:54 METAR KMVL 241854Z AUTO 00000KT 10SM BKN028 OVC035 19/15 A2983 RMK AO2 SLP103
                 T01940150 TSNO =
2018-06-24 14:21 METAR KMVL 241821Z AUTO 00000KT 10SM FEW023 OVC031 18/15 A2983 RMK AO2 T01830150
                 TSNO =
2018-06-24 13:54 METAR KMVL 241754Z AUTO 02003KT 10SM OVC024 18/14 A2983 RMK AO2 SLP102 T01830144
                 10183 20133 58000 TSNO =
2018-06-24 12:54 METAR KMVL 241654Z AUTO 02003KT 10SM SCT014 BKN023 OVC039 18/14 A2983 RMK AO2
                 SLP103 T01780144 TSNO =
2018-06-24 11:54 METAR KMVL 241554Z AUTO 01004KT 10SM OVC027 17/14 A2984 RMK AO2 SLP105 T01720144
                 TSNO =
2018-06-24 11:38 METAR KMVL 241538Z AUTO 01004KT 10SM BKN026 OVC031 17/14 A2983 RMK AO2 T01670144
                 TSNO =
2018-06-24 10:54 METAR KMVL 241454Z AUTO VRB03KT 10SM FEW011 BKN030 OVC060 17/14 A2983 RMK AO2
                 SLP103 T01670139 51007 TSNO =
2018-06-24 10:41 METAR KMVL 241441Z AUTO 02004KT 10SM SCT011 BKN020 OVC050 17/14 A2983 RMK AO2
                 T01670139 TSNO =
2018-06-24 10:30 METAR KMVL 241430Z AUTO VRB03KT 10SM SCT011 BKN050 OVC060 16/13 A2983 RMK AO2
                 T01610133 TSNO =
2018-06-24 09:54 METAR KMVL 241354Z AUTO 01004KT 10SM BKN011 OVC023 15/13 A2983 RMK AO2 SLP103
                 T01500133 TSNO =
2018-06-24 09:45 METAR KMVL 241345Z AUTO 00000KT 10SM BKN011 OVC023 15/13 A2983 RMK AO2 T01500133
                 TSNO =
2018-06-24 09:33 METAR KMVL 241333Z AUTO 00000KT 10SM SCT011 OVC024 15/13 A2983 RMK AO2 T01500133
                 TSNO =
2018-06-24 08:54 METAR KMVL 241254Z AUTO 00000KT 10SM BKN012 OVC026 14/13 A2983 RMK AO2 SLP102
                 T01390128 TSNO =
2018-06-24 07:54 METAR KMVL 241154Z AUTO 00000KT 8SM FEW007 OVC011 13/12 A2981 RMK AO2 SLP096
                 70003 T01330122 10133 20128 53007 TSNO =
2018-06-24 07:24 METAR KMVL 241124Z AUTO 00000KT 10SM OVC010 13/12 A2980 RMK AO2 CIG 007V011
                 T01330122 TSNO =
2018-06-24 07:01 METAR KMVL 241101Z AUTO 00000KT 10SM OVC006 13/12 A2980 RMK AO2 CIG 004V009
                 T01330122 TSNO =
2018-06-24 06:54 METAR KMVL 241054Z AUTO 00000KT 10SM OVC004 13/13 A2980 RMK AO2 CIG 004V007
                 SLP091 T01330128 TSNO =
2018-06-24 06:46 METAR KMVL 241046Z AUTO 00000KT 10SM OVC004 13/13 A2980 RMK AO2 CIG 004V008
                 T01330128 TSNO =
2018-06-24 05:54 METAR KMVL 240954Z AUTO 00000KT 10SM OVC005 13/12 A2980 RMK AO2 SLP092 T01280122
                 TSNO =
2018-06-24 04:54 METAR KMVL 240854Z AUTO 03003KT 10SM BKN006 OVC010 13/12 A2979 RMK AO2 SLP089
                 T01280122 50001 TSNO =
2018-06-24 04:51 METAR KMVL 240851Z AUTO 00000KT 10SM BKN006 OVC010 13/12 A2979 RMK AO2 TSNO =
2018-06-24 04:43 METAR KMVL 240843Z AUTO 00000KT 10SM OVC010 13/12 A2979 RMK AO2 CIG 007V011
                 T01280122 TSNO =
2018-06-24 04:30 METAR KMVL 240830Z AUTO 00000KT 10SM OVC009 13/12 A2979 RMK AO2 T01280122 TSNO =
2018-06-24 03:54 METAR KMVL 240754Z AUTO 00000KT 10SM OVC013 13/12 A2979 RMK AO2 SLP087 T01280122
                 TSNO =
2018-06-24 03:50 METAR KMVL 240750Z AUTO 00000KT 10SM OVC013 13/12 A2978 RMK AO2 TSNO =
2018-06-24 02:54 METAR KMVL 240654Z AUTO 00000KT 10SM FEW016 BKN022 OVC027 13/12 A2979 RMK AO2
                 SLP087 T01280117 TSNO =
2018-06-24 01:54 METAR KMVL 240554Z AUTO 16003KT 10SM BKN019 OVC033 13/12 A2980 RMK AO2 SLP091
                 T01280117 10139 20128 58012 TSNO =
2018-06-24 00:54 METAR KMVL 240454Z AUTO 20004KT 10SM OVC019 13/11 A2981 RMK AO2 SLP095 T01280111
                 401940106 TSNO =

Support USWX by starting your Amazon purchase here.